sensor_id;sensor_type;location;lat;lon;timestamp;pressure;altitude;pressure_sealevel;temperature;humidity
80853;BME280;70270;43.434;28.338;2023-07-31T00:02:25;99483.91;;;23.61;67.25
80853;BME280;70270;43.434;28.338;2023-07-31T00:05:09;99496.22;;;23.69;67.31
80853;BME280;70270;43.434;28.338;2023-07-31T00:07:54;99493.53;;;23.64;67.61
80853;BME280;70270;43.434;28.338;2023-07-31T00:10:39;99488.00;;;23.64;67.38
80853;BME280;70270;43.434;28.338;2023-07-31T00:13:23;99500.19;;;23.63;67.14
80853;BME280;70270;43.434;28.338;2023-07-31T00:16:12;99492.94;;;23.67;67.05
80853;BME280;70270;43.434;28.338;2023-07-31T00:18:59;99476.34;;;23.67;66.82
80853;BME280;70270;43.434;28.338;2023-07-31T00:21:44;99484.31;;;23.68;66.99
80853;BME280;70270;43.434;28.338;2023-07-31T00:24:29;99479.81;;;23.72;66.80
80853;BME280;70270;43.434;28.338;2023-07-31T00:27:16;99481.59;;;23.50;67.67
80853;BME280;70270;43.434;28.338;2023-07-31T00:30:01;99490.31;;;23.57;67.15
80853;BME280;70270;43.434;28.338;2023-07-31T00:32:46;99481.53;;;23.55;67.80
80853;BME280;70270;43.434;28.338;2023-07-31T00:35:33;99484.28;;;23.55;67.87
80853;BME280;70270;43.434;28.338;2023-07-31T00:38:17;99481.59;;;23.50;67.58
80853;BME280;70270;43.434;28.338;2023-07-31T00:41:02;99477.84;;;23.41;68.05
80853;BME280;70270;43.434;28.338;2023-07-31T00:43:47;99482.22;;;23.47;68.19
80853;BME280;70270;43.434;28.338;2023-07-31T00:46:31;99492.06;;;23.53;68.02
80853;BME280;70270;43.434;28.338;2023-07-31T00:49:16;99491.84;;;23.49;68.07
80853;BME280;70270;43.434;28.338;2023-07-31T00:52:00;99447.06;;;23.28;68.62
80853;BME280;70270;43.434;28.338;2023-07-31T00:54:48;99422.44;;;23.13;67.89
80853;BME280;70270;43.434;28.338;2023-07-31T00:57:33;99473.94;;;23.60;68.04
80853;BME280;70270;43.434;28.338;2023-07-31T01:00:19;99486.09;;;23.46;68.47
80853;BME280;70270;43.434;28.338;2023-07-31T01:03:04;99506.03;;;23.61;67.90
80853;BME280;70270;43.434;28.338;2023-07-31T01:06:21;99482.84;;;23.57;68.15
80853;BME280;70270;43.434;28.338;2023-07-31T01:09:25;99428.81;;;23.27;67.72
80853;BME280;70270;43.434;28.338;2023-07-31T01:12:15;99398.38;;;22.95;68.06
80853;BME280;70270;43.434;28.338;2023-07-31T01:15:04;99488.47;;;23.52;68.55
80853;BME280;70270;43.434;28.338;2023-07-31T01:17:49;99471.56;;;23.35;69.03
80853;BME280;70270;43.434;28.338;2023-07-31T01:20:35;99396.75;;;22.94;69.16
80853;BME280;70270;43.434;28.338;2023-07-31T01:26:45;99479.34;;;23.52;68.49
80853;BME280;70270;43.434;28.338;2023-07-31T01:32:22;99478.31;;;23.48;69.10
80853;BME280;70270;43.434;28.338;2023-07-31T01:35:07;99478.09;;;23.44;69.19
80853;BME280;70270;43.434;28.338;2023-07-31T01:37:53;99482.47;;;23.64;68.71
80853;BME280;70270;43.434;28.338;2023-07-31T01:40:41;99442.34;;;23.29;69.05
80853;BME280;70270;43.434;28.338;2023-07-31T01:43:27;99483.63;;;23.44;69.72
80853;BME280;70270;43.434;28.338;2023-07-31T01:46:11;99494.00;;;23.52;69.34
80853;BME280;70270;43.434;28.338;2023-07-31T01:48:56;99490.88;;;23.59;69.09
80853;BME280;70270;43.434;28.338;2023-07-31T01:51:44;99499.13;;;23.77;69.22
80853;BME280;70270;43.434;28.338;2023-07-31T01:54:31;99499.06;;;23.96;70.73
80853;BME280;70270;43.434;28.338;2023-07-31T01:57:16;99403.41;;;23.44;71.17
80853;BME280;70270;43.434;28.338;2023-07-31T02:00:00;99411.56;;;23.54;71.54
80853;BME280;70270;43.434;28.338;2023-07-31T02:02:56;99408.31;;;23.66;71.04
80853;BME280;70270;43.434;28.338;2023-07-31T02:05:48;99503.97;;;24.18;71.81
80853;BME280;70270;43.434;28.338;2023-07-31T02:08:33;99512.25;;;24.32;70.85
80853;BME280;70270;43.434;28.338;2023-07-31T02:11:18;99508.91;;;24.35;71.04
80853;BME280;70270;43.434;28.338;2023-07-31T02:14:03;99502.75;;;24.38;71.01
80853;BME280;70270;43.434;28.338;2023-07-31T02:16:48;99409.72;;;23.12;73.92
80853;BME280;70270;43.434;28.338;2023-07-31T02:19:32;99520.59;;;23.67;74.15
80853;BME280;70270;43.434;28.338;2023-07-31T02:22:17;99527.50;;;23.51;74.75
80853;BME280;70270;43.434;28.338;2023-07-31T02:25:05;99520.09;;;23.46;74.79
80853;BME280;70270;43.434;28.338;2023-07-31T02:27:49;99522.34;;;23.44;74.12
80853;BME280;70270;43.434;28.338;2023-07-31T02:30:33;99508.09;;;23.32;74.01
80853;BME280;70270;43.434;28.338;2023-07-31T02:33:18;99480.59;;;23.59;72.39
80853;BME280;70270;43.434;28.338;2023-07-31T02:36:04;99507.81;;;23.52;72.91
80853;BME280;70270;43.434;28.338;2023-07-31T02:38:48;99503.72;;;23.50;72.87
80853;BME280;70270;43.434;28.338;2023-07-31T02:41:36;99536.97;;;23.45;72.83
80853;BME280;70270;43.434;28.338;2023-07-31T02:44:20;99542.00;;;23.43;72.78
80853;BME280;70270;43.434;28.338;2023-07-31T02:47:05;99547.31;;;23.58;71.96
80853;BME280;70270;43.434;28.338;2023-07-31T02:49:51;99510.72;;;23.61;70.87
80853;BME280;70270;43.434;28.338;2023-07-31T02:52:35;99545.41;;;23.72;70.35
80853;BME280;70270;43.434;28.338;2023-07-31T02:55:20;99538.41;;;23.61;70.87
80853;BME280;70270;43.434;28.338;2023-07-31T02:58:08;99549.13;;;23.81;69.84
80853;BME280;70270;43.434;28.338;2023-07-31T03:00:52;99569.19;;;23.73;69.62
80853;BME280;70270;43.434;28.338;2023-07-31T03:03:37;99565.75;;;23.81;69.52
80853;BME280;70270;43.434;28.338;2023-07-31T03:06:21;99470.75;;;23.35;69.08
80853;BME280;70270;43.434;28.338;2023-07-31T03:09:06;99468.88;;;23.49;68.19
80853;BME280;70270;43.434;28.338;2023-07-31T03:11:51;99563.31;;;23.93;68.21
80853;BME280;70270;43.434;28.338;2023-07-31T03:14:35;99564.41;;;24.11;67.69
80853;BME280;70270;43.434;28.338;2023-07-31T03:17:20;99560.38;;;24.03;67.53
80853;BME280;70270;43.434;28.338;2023-07-31T03:20:04;99559.94;;;24.15;67.42
80853;BME280;70270;43.434;28.338;2023-07-31T03:22:49;99554.63;;;24.32;66.53
80853;BME280;70270;43.434;28.338;2023-07-31T03:25:34;99540.66;;;24.23;66.23
80853;BME280;70270;43.434;28.338;2023-07-31T03:28:18;99553.53;;;24.47;66.11
80853;BME280;70270;43.434;28.338;2023-07-31T03:31:03;99532.69;;;24.36;65.91
80853;BME280;70270;43.434;28.338;2023-07-31T03:33:47;99542.59;;;24.55;65.67
80853;BME280;70270;43.434;28.338;2023-07-31T03:36:32;99562.13;;;24.91;64.74
80853;BME280;70270;43.434;28.338;2023-07-31T03:39:17;99545.97;;;24.93;64.38
80853;BME280;70270;43.434;28.338;2023-07-31T03:42:01;99505.22;;;24.39;65.68
80853;BME280;70270;43.434;28.338;2023-07-31T03:44:47;99529.34;;;24.66;65.54
80853;BME280;70270;43.434;28.338;2023-07-31T03:47:32;99530.03;;;24.71;65.39
80853;BME280;70270;43.434;28.338;2023-07-31T03:50:16;99505.53;;;24.51;65.69
80853;BME280;70270;43.434;28.338;2023-07-31T03:53:01;99526.19;;;24.86;64.68
80853;BME280;70270;43.434;28.338;2023-07-31T03:55:46;99542.78;;;25.13;64.33
80853;BME280;70270;43.434;28.338;2023-07-31T03:58:31;99532.50;;;24.73;65.70
80853;BME280;70270;43.434;28.338;2023-07-31T04:01:17;99554.06;;;24.76;65.89
80853;BME280;70270;43.434;28.338;2023-07-31T04:04:03;99545.44;;;25.19;64.88
80853;BME280;70270;43.434;28.338;2023-07-31T04:06:50;99553.03;;;25.27;64.38
80853;BME280;70270;43.434;28.338;2023-07-31T04:09:34;99556.13;;;25.11;64.77
80853;BME280;70270;43.434;28.338;2023-07-31T04:12:19;99547.63;;;25.44;64.48
80853;BME280;70270;43.434;28.338;2023-07-31T04:15:04;99526.66;;;25.51;63.26
80853;BME280;70270;43.434;28.338;2023-07-31T04:17:49;99527.75;;;25.64;62.97
80853;BME280;70270;43.434;28.338;2023-07-31T04:20:33;99546.47;;;25.09;64.94
80853;BME280;70270;43.434;28.338;2023-07-31T04:23:20;99552.44;;;24.89;65.63
80853;BME280;70270;43.434;28.338;2023-07-31T04:26:05;99536.19;;;24.68;66.12
80853;BME280;70270;43.434;28.338;2023-07-31T04:28:49;99438.06;;;24.01;66.69
80853;BME280;70270;43.434;28.338;2023-07-31T04:31:34;99551.44;;;24.98;66.06
80853;BME280;70270;43.434;28.338;2023-07-31T04:34:18;99564.97;;;24.86;66.41
80853;BME280;70270;43.434;28.338;2023-07-31T04:37:03;99481.22;;;24.35;65.84
80853;BME280;70270;43.434;28.338;2023-07-31T04:39:47;99560.25;;;24.87;66.16
80853;BME280;70270;43.434;28.338;2023-07-31T04:42:32;99544.84;;;24.94;65.34
80853;BME280;70270;43.434;28.338;2023-07-31T04:45:16;99560.56;;;25.48;64.33
80853;BME280;70270;43.434;28.338;2023-07-31T04:48:01;99558.69;;;25.71;62.88
80853;BME280;70270;43.434;28.338;2023-07-31T04:50:45;99543.28;;;25.65;63.17
80853;BME280;70270;43.434;28.338;2023-07-31T04:53:33;99560.44;;;25.89;62.32
80853;BME280;70270;43.434;28.338;2023-07-31T04:56:17;99538.53;;;25.52;63.46
80853;BME280;70270;43.434;28.338;2023-07-31T04:59:01;99546.13;;;25.74;62.65
80853;BME280;70270;43.434;28.338;2023-07-31T05:01:46;99582.78;;;26.06;62.25
80853;BME280;70270;43.434;28.338;2023-07-31T05:04:31;99578.56;;;26.31;61.28
80853;BME280;70270;43.434;28.338;2023-07-31T05:07:18;99490.41;;;25.70;61.06
80853;BME280;70270;43.434;28.338;2023-07-31T05:10:02;99576.47;;;26.15;61.26
80853;BME280;70270;43.434;28.338;2023-07-31T05:12:49;99508.78;;;25.44;61.60
80853;BME280;70270;43.434;28.338;2023-07-31T05:15:34;99575.59;;;26.05;61.34
80853;BME280;70270;43.434;28.338;2023-07-31T05:18:18;99588.06;;;26.17;61.03
80853;BME280;70270;43.434;28.338;2023-07-31T05:21:03;99566.25;;;25.79;61.84
80853;BME280;70270;43.434;28.338;2023-07-31T05:23:48;99601.66;;;25.60;61.89
80853;BME280;70270;43.434;28.338;2023-07-31T05:26:33;99590.59;;;25.33;63.30
80853;BME280;70270;43.434;28.338;2023-07-31T05:29:19;99535.56;;;24.71;63.72
80853;BME280;70270;43.434;28.338;2023-07-31T05:32:04;99600.50;;;25.11;63.86
80853;BME280;70270;43.434;28.338;2023-07-31T05:34:52;99595.25;;;24.96;64.22
80853;BME280;70270;43.434;28.338;2023-07-31T05:37:37;99585.09;;;25.19;64.41
80853;BME280;70270;43.434;28.338;2023-07-31T05:40:24;99594.72;;;25.22;63.73
80853;BME280;70270;43.434;28.338;2023-07-31T05:43:08;99489.63;;;24.57;63.76
80853;BME280;70270;43.434;28.338;2023-07-31T05:45:53;99590.19;;;25.26;63.83
80853;BME280;70270;43.434;28.338;2023-07-31T05:48:38;99591.22;;;25.30;63.27
80853;BME280;70270;43.434;28.338;2023-07-31T05:51:24;99514.09;;;25.18;62.42
80853;BME280;70270;43.434;28.338;2023-07-31T05:54:11;99568.25;;;25.65;61.75
80853;BME280;70270;43.434;28.338;2023-07-31T05:56:55;99586.22;;;26.26;58.49
80853;BME280;70270;43.434;28.338;2023-07-31T05:59:40;99600.09;;;26.26;58.21
80853;BME280;70270;43.434;28.338;2023-07-31T06:02:24;99498.19;;;26.13;57.25
80853;BME280;70270;43.434;28.338;2023-07-31T06:05:08;99579.44;;;26.71;55.42
80853;BME280;70270;43.434;28.338;2023-07-31T06:07:53;99576.94;;;27.00;54.39
80853;BME280;70270;43.434;28.338;2023-07-31T06:10:37;99540.66;;;27.23;53.66
80853;BME280;70270;43.434;28.338;2023-07-31T06:13:22;99586.09;;;27.66;51.86
80853;BME280;70270;43.434;28.338;2023-07-31T06:16:07;99430.19;;;26.97;51.41
80853;BME280;70270;43.434;28.338;2023-07-31T06:18:56;99580.19;;;27.93;50.46
80853;BME280;70270;43.434;28.338;2023-07-31T06:21:41;99602.63;;;28.06;49.49
80853;BME280;70270;43.434;28.338;2023-07-31T06:24:28;99502.56;;;27.83;49.21
80853;BME280;70270;43.434;28.338;2023-07-31T06:27:12;99559.63;;;28.50;48.65
80853;BME280;70270;43.434;28.338;2023-07-31T06:29:57;99581.31;;;28.91;47.69
80853;BME280;70270;43.434;28.338;2023-07-31T06:32:41;99593.56;;;28.98;47.05
80853;BME280;70270;43.434;28.338;2023-07-31T06:35:26;99584.63;;;29.13;46.50
80853;BME280;70270;43.434;28.338;2023-07-31T06:38:11;99504.16;;;28.57;45.06
80853;BME280;70270;43.434;28.338;2023-07-31T06:40:55;99521.22;;;28.55;46.11
80853;BME280;70270;43.434;28.338;2023-07-31T06:43:40;99577.19;;;28.33;47.59
80853;BME280;70270;43.434;28.338;2023-07-31T06:46:24;99571.28;;;28.43;45.92
80853;BME280;70270;43.434;28.338;2023-07-31T06:49:09;99510.69;;;28.06;46.55
80853;BME280;70270;43.434;28.338;2023-07-31T06:51:53;99506.75;;;28.07;46.47
80853;BME280;70270;43.434;28.338;2023-07-31T06:54:38;99574.47;;;28.79;46.18
80853;BME280;70270;43.434;28.338;2023-07-31T06:57:22;99548.59;;;28.53;45.61
80853;BME280;70270;43.434;28.338;2023-07-31T07:00:07;99580.22;;;29.12;46.04
80853;BME280;70270;43.434;28.338;2023-07-31T07:02:52;99592.72;;;29.06;44.66
80853;BME280;70270;43.434;28.338;2023-07-31T07:05:37;99534.06;;;28.86;45.38
80853;BME280;70270;43.434;28.338;2023-07-31T07:08:21;99510.50;;;28.74;44.93
80853;BME280;70270;43.434;28.338;2023-07-31T07:11:05;99593.44;;;29.24;44.93
80853;BME280;70270;43.434;28.338;2023-07-31T07:13:50;99611.44;;;29.64;43.83
80853;BME280;70270;43.434;28.338;2023-07-31T07:16:34;99593.22;;;29.88;43.77
80853;BME280;70270;43.434;28.338;2023-07-31T07:19:19;99538.88;;;29.06;44.03
80853;BME280;70270;43.434;28.338;2023-07-31T07:22:04;99472.69;;;28.10;44.97
80853;BME280;70270;43.434;28.338;2023-07-31T07:24:50;99573.06;;;28.56;45.81
80853;BME280;70270;43.434;28.338;2023-07-31T07:27:34;99514.13;;;28.28;45.74
80853;BME280;70270;43.434;28.338;2023-07-31T07:30:21;99491.69;;;28.08;45.46
80853;BME280;70270;43.434;28.338;2023-07-31T07:33:05;99598.03;;;28.91;45.13
80853;BME280;70270;43.434;28.338;2023-07-31T07:35:50;99594.09;;;29.21;44.78
80853;BME280;70270;43.434;28.338;2023-07-31T07:38:34;99581.03;;;29.42;43.47
80853;BME280;70270;43.434;28.338;2023-07-31T07:41:18;99594.91;;;29.30;44.02
80853;BME280;70270;43.434;28.338;2023-07-31T07:44:03;99604.97;;;29.72;43.68
80853;BME280;70270;43.434;28.338;2023-07-31T07:46:48;99569.25;;;29.78;43.04
80853;BME280;70270;43.434;28.338;2023-07-31T07:49:34;99567.91;;;29.84;42.70
80853;BME280;70270;43.434;28.338;2023-07-31T07:52:19;99578.13;;;29.80;43.19
80853;BME280;70270;43.434;28.338;2023-07-31T07:55:04;99587.16;;;30.18;43.24
80853;BME280;70270;43.434;28.338;2023-07-31T07:57:48;99588.25;;;30.05;43.24
80853;BME280;70270;43.434;28.338;2023-07-31T08:00:34;99584.72;;;30.17;42.49
80853;BME280;70270;43.434;28.338;2023-07-31T08:03:19;99577.84;;;30.47;41.62
80853;BME280;70270;43.434;28.338;2023-07-31T08:06:04;99562.75;;;30.73;41.37
80853;BME280;70270;43.434;28.338;2023-07-31T08:08:48;99563.13;;;31.07;41.37
80853;BME280;70270;43.434;28.338;2023-07-31T08:11:33;99490.41;;;30.38;45.23
80853;BME280;70270;43.434;28.338;2023-07-31T08:14:17;99549.75;;;30.11;48.13
80853;BME280;70270;43.434;28.338;2023-07-31T08:17:02;99585.41;;;29.52;49.17
80853;BME280;70270;43.434;28.338;2023-07-31T08:19:46;99587.84;;;28.95;50.19
80853;BME280;70270;43.434;28.338;2023-07-31T08:22:33;99574.81;;;28.69;51.21
80853;BME280;70270;43.434;28.338;2023-07-31T08:25:18;99589.44;;;28.58;51.03
80853;BME280;70270;43.434;28.338;2023-07-31T08:28:03;99577.25;;;28.07;53.70
80853;BME280;70270;43.434;28.338;2023-07-31T08:30:48;99603.69;;;27.27;55.91
80853;BME280;70270;43.434;28.338;2023-07-31T08:33:32;99487.56;;;26.37;55.23
80853;BME280;70270;43.434;28.338;2023-07-31T08:36:16;99592.84;;;27.17;52.65
80853;BME280;70270;43.434;28.338;2023-07-31T08:39:01;99571.59;;;27.30;53.67
80853;BME280;70270;43.434;28.338;2023-07-31T08:41:45;99507.94;;;27.28;52.23
80853;BME280;70270;43.434;28.338;2023-07-31T08:44:30;99592.50;;;27.75;53.04
80853;BME280;70270;43.434;28.338;2023-07-31T08:47:16;99576.41;;;27.47;51.37
80853;BME280;70270;43.434;28.338;2023-07-31T08:50:01;99590.94;;;27.35;51.74
80853;BME280;70270;43.434;28.338;2023-07-31T08:52:48;99470.34;;;26.26;52.87
80853;BME280;70270;43.434;28.338;2023-07-31T08:55:33;99607.81;;;27.38;51.16
80853;BME280;70270;43.434;28.338;2023-07-31T08:58:18;99594.13;;;27.85;50.60
80853;BME280;70270;43.434;28.338;2023-07-31T09:01:04;99495.03;;;27.24;50.72
80853;BME280;70270;43.434;28.338;2023-07-31T09:03:51;99598.97;;;27.45;50.21
80853;BME280;70270;43.434;28.338;2023-07-31T09:06:38;99602.16;;;27.86;50.01
80853;BME280;70270;43.434;28.338;2023-07-31T09:09:23;99561.19;;;28.13;49.52
80853;BME280;70270;43.434;28.338;2023-07-31T09:12:08;99580.94;;;28.46;48.39
80853;BME280;70270;43.434;28.338;2023-07-31T09:14:52;99604.28;;;28.24;48.25
80853;BME280;70270;43.434;28.338;2023-07-31T09:17:37;99577.72;;;28.18;48.76
80853;BME280;70270;43.434;28.338;2023-07-31T09:20:21;99592.66;;;28.22;49.03
80853;BME280;70270;43.434;28.338;2023-07-31T09:23:10;99576.69;;;27.28;51.55
80853;BME280;70270;43.434;28.338;2023-07-31T09:25:55;99599.31;;;27.43;49.46
80853;BME280;70270;43.434;28.338;2023-07-31T09:28:40;99609.81;;;26.98;52.24
80853;BME280;70270;43.434;28.338;2023-07-31T09:31:40;99607.88;;;27.73;50.33
80853;BME280;70270;43.434;28.338;2023-07-31T09:34:30;99609.63;;;28.72;47.86
80853;BME280;70270;43.434;28.338;2023-07-31T09:37:21;99530.06;;;27.93;48.51
80853;BME280;70270;43.434;28.338;2023-07-31T09:40:06;99595.09;;;27.98;49.26
80853;BME280;70270;43.434;28.338;2023-07-31T09:42:50;99611.97;;;27.75;49.06
80853;BME280;70270;43.434;28.338;2023-07-31T09:45:36;99610.47;;;27.61;50.21
80853;BME280;70270;43.434;28.338;2023-07-31T09:48:23;99611.81;;;27.07;51.87
80853;BME280;70270;43.434;28.338;2023-07-31T09:51:10;99602.91;;;27.44;51.78
80853;BME280;70270;43.434;28.338;2023-07-31T09:53:54;99582.34;;;27.71;50.64
80853;BME280;70270;43.434;28.338;2023-07-31T09:56:42;99612.66;;;27.72;50.34
80853;BME280;70270;43.434;28.338;2023-07-31T09:59:27;99617.06;;;27.82;50.32
80853;BME280;70270;43.434;28.338;2023-07-31T10:02:15;99611.00;;;28.23;49.18
80853;BME280;70270;43.434;28.338;2023-07-31T10:05:08;99611.28;;;28.47;48.95
80853;BME280;70270;43.434;28.338;2023-07-31T10:07:57;99612.97;;;27.79;51.77
80853;BME280;70270;43.434;28.338;2023-07-31T10:10:44;99619.41;;;27.23;53.48
80853;BME280;70270;43.434;28.338;2023-07-31T10:13:33;99610.97;;;27.54;53.09
80853;BME280;70270;43.434;28.338;2023-07-31T10:16:18;99614.91;;;27.53;53.73
80853;BME280;70270;43.434;28.338;2023-07-31T10:19:08;99609.28;;;27.36;55.16
80853;BME280;70270;43.434;28.338;2023-07-31T10:21:55;99509.09;;;27.36;53.09
80853;BME280;70270;43.434;28.338;2023-07-31T10:24:45;99604.63;;;27.88;54.42
80853;BME280;70270;43.434;28.338;2023-07-31T10:27:30;99601.16;;;27.82;54.17
80853;BME280;70270;43.434;28.338;2023-07-31T10:30:16;99602.22;;;27.30;56.58
80853;BME280;70270;43.434;28.338;2023-07-31T10:33:02;99601.16;;;27.48;56.49
80853;BME280;70270;43.434;28.338;2023-07-31T10:35:50;99602.63;;;27.97;54.33
80853;BME280;70270;43.434;28.338;2023-07-31T10:38:38;99594.13;;;27.85;53.28
80853;BME280;70270;43.434;28.338;2023-07-31T10:41:32;99618.06;;;26.81;55.95
80853;BME280;70270;43.434;28.338;2023-07-31T10:44:17;99602.13;;;26.95;55.90
80853;BME280;70270;43.434;28.338;2023-07-31T10:47:01;99592.22;;;27.29;55.39
80853;BME280;70270;43.434;28.338;2023-07-31T10:49:46;99428.41;;;26.45;54.82
80853;BME280;70270;43.434;28.338;2023-07-31T10:52:34;99578.06;;;27.65;54.71
80853;BME280;70270;43.434;28.338;2023-07-31T10:55:43;99599.22;;;27.91;55.50
80853;BME280;70270;43.434;28.338;2023-07-31T10:58:33;99614.09;;;27.70;54.65
80853;BME280;70270;43.434;28.338;2023-07-31T11:01:19;99610.53;;;26.82;57.72
80853;BME280;70270;43.434;28.338;2023-07-31T11:04:10;99606.28;;;27.15;57.32
80853;BME280;70270;43.434;28.338;2023-07-31T11:06:56;99582.03;;;26.76;57.26
80853;BME280;70270;43.434;28.338;2023-07-31T11:09:41;99586.13;;;26.70;58.00
80853;BME280;70270;43.434;28.338;2023-07-31T11:12:25;99604.06;;;27.43;56.04
80853;BME280;70270;43.434;28.338;2023-07-31T11:15:11;99585.03;;;27.28;56.59
80853;BME280;70270;43.434;28.338;2023-07-31T11:17:56;99605.25;;;27.03;55.16
80853;BME280;70270;43.434;28.338;2023-07-31T11:20:42;99511.97;;;26.96;54.83
80853;BME280;70270;43.434;28.338;2023-07-31T11:23:26;99603.47;;;27.63;55.58
80853;BME280;70270;43.434;28.338;2023-07-31T11:26:11;99598.09;;;27.19;56.13
80853;BME280;70270;43.434;28.338;2023-07-31T11:28:56;99592.81;;;27.09;56.68
80853;BME280;70270;43.434;28.338;2023-07-31T11:31:44;99606.13;;;27.29;55.71
80853;BME280;70270;43.434;28.338;2023-07-31T11:34:28;99569.78;;;27.17;57.16
80853;BME280;70270;43.434;28.338;2023-07-31T11:37:13;99572.09;;;27.23;54.91
80853;BME280;70270;43.434;28.338;2023-07-31T11:40:01;99482.00;;;26.85;53.82
80853;BME280;70270;43.434;28.338;2023-07-31T11:42:46;99592.81;;;27.65;53.64
80853;BME280;70270;43.434;28.338;2023-07-31T11:45:30;99587.06;;;27.53;50.77
80853;BME280;70270;43.434;28.338;2023-07-31T11:48:25;99584.13;;;27.75;54.11
80853;BME280;70270;43.434;28.338;2023-07-31T11:51:13;99581.34;;;27.58;55.04
80853;BME280;70270;43.434;28.338;2023-07-31T11:53:59;99584.31;;;27.79;56.04
80853;BME280;70270;43.434;28.338;2023-07-31T11:56:45;99577.25;;;28.16;53.14
80853;BME280;70270;43.434;28.338;2023-07-31T11:59:30;99474.38;;;27.08;49.61
80853;BME280;70270;43.434;28.338;2023-07-31T12:02:14;99570.06;;;27.63;51.01
80853;BME280;70270;43.434;28.338;2023-07-31T12:04:59;99547.44;;;27.73;51.92
80853;BME280;70270;43.434;28.338;2023-07-31T12:07:49;99356.53;;;26.69;53.37
80853;BME280;70270;43.434;28.338;2023-07-31T12:10:33;99572.31;;;28.30;51.28
80853;BME280;70270;43.434;28.338;2023-07-31T12:13:25;99565.72;;;28.34;51.65
80853;BME280;70270;43.434;28.338;2023-07-31T12:16:10;99535.75;;;28.23;51.29
80853;BME280;70270;43.434;28.338;2023-07-31T12:18:55;99573.44;;;28.29;51.87
80853;BME280;70270;43.434;28.338;2023-07-31T12:21:39;99484.31;;;28.20;51.40
80853;BME280;70270;43.434;28.338;2023-07-31T12:24:24;99565.41;;;28.36;51.86
80853;BME280;70270;43.434;28.338;2023-07-31T12:27:14;99561.97;;;28.05;53.08
80853;BME280;70270;43.434;28.338;2023-07-31T12:29:59;99574.47;;;27.47;54.96
80853;BME280;70270;43.434;28.338;2023-07-31T12:32:43;99473.88;;;26.18;57.22
80853;BME280;70270;43.434;28.338;2023-07-31T12:35:35;99558.25;;;26.53;58.75
80853;BME280;70270;43.434;28.338;2023-07-31T12:38:20;99536.94;;;26.79;56.97
80853;BME280;70270;43.434;28.338;2023-07-31T12:41:04;99563.13;;;27.35;57.26
80853;BME280;70270;43.434;28.338;2023-07-31T12:43:50;99502.31;;;26.85;57.15
80853;BME280;70270;43.434;28.338;2023-07-31T12:46:35;99554.72;;;27.09;56.98
80853;BME280;70270;43.434;28.338;2023-07-31T12:49:19;99525.69;;;26.84;56.51
80853;BME280;70270;43.434;28.338;2023-07-31T12:52:04;99370.38;;;25.95;58.08
80853;BME280;70270;43.434;28.338;2023-07-31T12:54:49;99493.19;;;27.45;56.04
80853;BME280;70270;43.434;28.338;2023-07-31T12:57:34;99532.06;;;27.67;55.97
80853;BME280;70270;43.434;28.338;2023-07-31T13:00:18;99539.53;;;27.92;55.60
80853;BME280;70270;43.434;28.338;2023-07-31T13:03:03;99539.56;;;27.50;56.42
80853;BME280;70270;43.434;28.338;2023-07-31T13:05:47;99426.25;;;26.33;57.96
80853;BME280;70270;43.434;28.338;2023-07-31T13:08:32;99450.03;;;26.48;55.89
80853;BME280;70270;43.434;28.338;2023-07-31T13:11:16;99465.50;;;26.88;56.12
80853;BME280;70270;43.434;28.338;2023-07-31T13:14:00;99525.69;;;26.84;57.13
80853;BME280;70270;43.434;28.338;2023-07-31T13:16:45;99543.34;;;26.88;56.13
80853;BME280;70270;43.434;28.338;2023-07-31T13:19:32;99524.09;;;27.00;56.00
80853;BME280;70270;43.434;28.338;2023-07-31T13:22:17;99536.50;;;26.86;56.29
80853;BME280;70270;43.434;28.338;2023-07-31T13:25:01;99540.97;;;27.21;56.04
80853;BME280;70270;43.434;28.338;2023-07-31T13:27:46;99507.59;;;27.13;55.98
80853;BME280;70270;43.434;28.338;2023-07-31T13:30:30;99513.22;;;27.64;54.69
80853;BME280;70270;43.434;28.338;2023-07-31T13:33:17;99530.03;;;27.42;55.18
80853;BME280;70270;43.434;28.338;2023-07-31T13:36:01;99519.03;;;27.03;55.97
80853;BME280;70270;43.434;28.338;2023-07-31T13:38:45;99543.19;;;26.85;56.35
80853;BME280;70270;43.434;28.338;2023-07-31T13:41:30;99437.38;;;26.33;56.20
80853;BME280;70270;43.434;28.338;2023-07-31T13:44:14;99570.88;;;26.59;57.17
80853;BME280;70270;43.434;28.338;2023-07-31T13:46:59;99436.28;;;25.81;57.86
80853;BME280;70270;43.434;28.338;2023-07-31T13:49:44;99514.84;;;26.35;58.38
80853;BME280;70270;43.434;28.338;2023-07-31T13:52:29;99542.81;;;26.78;57.88
80853;BME280;70270;43.434;28.338;2023-07-31T13:55:13;99539.38;;;26.41;58.40
80853;BME280;70270;43.434;28.338;2023-07-31T13:57:58;99543.84;;;26.51;57.39
80853;BME280;70270;43.434;28.338;2023-07-31T14:00:42;99540.78;;;26.61;57.53
80853;BME280;70270;43.434;28.338;2023-07-31T14:03:27;99534.97;;;26.80;56.77
80853;BME280;70270;43.434;28.338;2023-07-31T14:06:11;99546.28;;;26.83;56.54
80853;BME280;70270;43.434;28.338;2023-07-31T14:08:55;99529.78;;;26.87;56.93
80853;BME280;70270;43.434;28.338;2023-07-31T14:11:40;99538.72;;;26.75;57.75
80853;BME280;70270;43.434;28.338;2023-07-31T14:14:25;99512.50;;;26.59;57.63
80853;BME280;70270;43.434;28.338;2023-07-31T14:17:09;99555.25;;;27.20;55.62
80853;BME280;70270;43.434;28.338;2023-07-31T14:19:54;99548.53;;;27.29;54.09
80853;BME280;70270;43.434;28.338;2023-07-31T14:22:38;99512.53;;;27.16;55.06
80853;BME280;70270;43.434;28.338;2023-07-31T14:25:23;99546.97;;;27.63;54.79
80853;BME280;70270;43.434;28.338;2023-07-31T14:28:07;99559.75;;;27.72;54.06
80853;BME280;70270;43.434;28.338;2023-07-31T14:30:52;99538.25;;;27.99;53.74
80853;BME280;70270;43.434;28.338;2023-07-31T14:33:37;99465.84;;;26.95;54.55